createdAt,value
2022-11-17T12:21:25.010Z,8.86
2022-11-17T12:24:17.495Z,8.93
2022-11-17T12:26:45.400Z,8.92
2022-11-17T12:29:22.005Z,8.95
2022-11-17T12:31:57.595Z,9.00
2022-11-17T12:34:31.818Z,9.03
2022-11-17T12:37:23.918Z,9.08
2022-11-17T12:39:52.747Z,9.09
2022-11-17T12:42:19.973Z,9.17
2022-11-17T12:45:04.578Z,9.20
2022-11-17T12:47:43.087Z,9.21
2022-11-17T12:50:19.695Z,9.25
2022-11-17T12:53:26.949Z,9.29
2022-11-17T12:56:03.308Z,9.31
2022-11-17T12:58:58.115Z,9.40
2022-11-17T13:02:11.107Z,9.48
2022-11-17T13:05:14.519Z,9.53
2022-11-17T13:07:41.819Z,9.53
2022-11-17T13:10:31.556Z,9.55
2022-11-17T13:13:23.043Z,9.59
2022-11-17T13:15:57.747Z,9.60
2022-11-17T13:18:37.953Z,9.61
2022-11-17T13:21:32.794Z,9.68
2022-11-17T13:24:00.840Z,9.69
2022-11-17T13:26:31.896Z,9.74
2022-11-17T13:29:10.830Z,9.76
2022-11-17T13:31:38.348Z,9.81
2022-11-17T13:34:15.999Z,9.86
2022-11-17T13:36:56.423Z,9.89
2022-11-17T13:39:27.256Z,9.90
2022-11-17T13:42:02.333Z,9.91
2022-11-17T13:44:31.001Z,9.90
2022-11-17T13:47:20.749Z,9.88
2022-11-17T13:49:48.524Z,9.86
2022-11-17T13:52:46.708Z,9.87
2022-11-17T13:55:22.992Z,9.86
2022-11-17T13:58:00.189Z,9.85
2022-11-17T14:00:29.908Z,9.83
2022-11-17T14:03:36.257Z,9.68
2022-11-17T14:06:12.934Z,9.76
2022-11-17T14:08:42.858Z,9.72
2022-11-17T14:11:10.236Z,9.71
2022-11-17T14:13:56.563Z,9.72
2022-11-17T14:16:41.432Z,9.71
2022-11-17T14:19:15.064Z,9.70
2022-11-17T14:22:11.466Z,9.68
2022-11-17T14:24:40.557Z,9.64
2022-11-17T14:27:27.000Z,9.66
2022-11-17T14:29:54.233Z,9.64
2022-11-17T14:32:21.708Z,9.64
2022-11-17T14:34:49.004Z,9.64
2022-11-17T14:37:16.529Z,9.65
2022-11-17T14:39:43.767Z,9.65
2022-11-17T14:42:11.368Z,9.65
2022-11-17T14:44:38.635Z,9.63
2022-11-17T14:47:06.125Z,9.65
2022-11-17T14:49:33.351Z,9.58
2022-11-17T14:52:00.591Z,9.58
2022-11-17T14:54:27.791Z,9.59
2022-11-17T14:56:55.000Z,9.56
2022-11-17T14:59:22.210Z,9.47
2022-11-17T15:01:49.416Z,9.45
2022-11-17T15:04:48.313Z,9.37
2022-11-17T15:07:03.780Z,9.34
2022-11-17T15:09:31.169Z,9.34
2022-11-17T15:11:58.443Z,9.26
2022-11-17T15:14:25.811Z,9.19
2022-11-17T15:16:53.089Z,9.15
2022-11-17T15:19:20.344Z,9.14
2022-11-17T15:21:47.671Z,9.10
2022-11-17T15:24:15.421Z,9.06
2022-11-17T15:26:42.970Z,9.03
2022-11-17T15:29:14.953Z,8.99
2022-11-17T15:31:42.746Z,8.92
2022-11-17T15:34:19.718Z,8.86
2022-11-17T15:36:48.317Z,8.81
2022-11-17T15:39:19.294Z,8.76
2022-11-17T15:41:47.911Z,8.72
2022-11-17T15:44:15.710Z,8.66
2022-11-17T15:46:47.359Z,8.63
2022-11-17T15:49:15.751Z,8.59
2022-11-17T15:51:43.165Z,8.54
2022-11-17T15:54:20.074Z,8.50
2022-11-17T15:56:48.253Z,8.41
2022-11-17T15:59:15.742Z,8.35
2022-11-17T16:01:43.564Z,8.29
2022-11-17T16:04:15.603Z,8.22
2022-11-17T16:06:45.349Z,8.16
2022-11-17T16:09:13.756Z,8.11
2022-11-17T16:11:41.256Z,8.08
2022-11-17T16:14:09.248Z,8.03
2022-11-17T16:16:39.117Z,8.00
2022-11-17T16:19:07.285Z,7.97
2022-11-17T16:21:34.611Z,7.97
2022-11-17T16:24:02.013Z,7.96
2022-11-17T16:26:30.941Z,7.95
2022-11-17T16:29:05.438Z,7.92
2022-11-17T16:31:36.144Z,7.88
2022-11-17T16:34:14.040Z,7.88
2022-11-17T16:36:43.614Z,7.84
2022-11-17T16:39:15.497Z,7.79
2022-11-17T16:41:45.283Z,7.78
2022-11-17T16:44:18.782Z,7.72
2022-11-17T16:46:48.726Z,7.68
2022-11-17T16:49:19.644Z,7.66
2022-11-17T16:51:52.875Z,7.62
2022-11-17T16:54:20.773Z,7.57
2022-11-17T16:56:48.421Z,7.51
2022-11-17T16:59:16.689Z,7.49
2022-11-17T17:01:44.432Z,7.45
2022-11-17T17:04:12.540Z,7.41
2022-11-17T17:06:43.272Z,7.38
2022-11-17T17:09:14.119Z,7.34
2022-11-17T17:11:42.401Z,7.31
2022-11-17T17:14:14.331Z,7.28
2022-11-17T17:16:42.501Z,7.22
2022-11-17T17:19:11.496Z,7.20
2022-11-17T17:21:40.433Z,7.18
2022-11-17T17:24:09.660Z,7.14
2022-11-17T17:26:38.543Z,7.10
2022-11-17T17:29:07.094Z,7.07
2022-11-17T17:31:39.374Z,7.03
2022-11-17T17:34:08.621Z,7.01
2022-11-17T17:36:36.295Z,7.05
2022-11-17T17:39:05.165Z,7.05
2022-11-17T17:41:39.902Z,7.04
2022-11-17T17:44:13.482Z,7.05
2022-11-17T17:46:40.779Z,7.06
2022-11-17T17:49:08.242Z,7.07
2022-11-17T17:51:43.752Z,7.04
2022-11-17T17:54:20.253Z,7.04
2022-11-17T17:56:48.098Z,7.05
2022-11-17T17:59:16.042Z,7.08
2022-11-17T18:01:44.121Z,7.09
2022-11-17T18:04:17.009Z,7.10
2022-11-17T18:06:46.504Z,7.13
2022-11-17T18:09:14.879Z,7.15
2022-11-17T18:11:42.287Z,7.15
2022-11-17T18:14:10.504Z,7.17
2022-11-17T18:16:37.805Z,7.15
2022-11-17T18:19:08.469Z,7.15
2022-11-17T18:21:36.804Z,7.10
2022-11-17T18:24:04.915Z,7.01
2022-11-17T18:26:35.424Z,7.00
2022-11-17T18:29:06.838Z,6.94
2022-11-17T18:31:36.827Z,6.91
2022-11-17T18:34:21.517Z,6.88
2022-11-17T18:36:51.707Z,6.83
2022-11-17T18:39:19.790Z,6.80
2022-11-17T18:41:47.293Z,6.80
2022-11-17T18:44:17.432Z,6.75
2022-11-17T18:46:45.606Z,6.78
2022-11-17T18:49:12.846Z,6.79
2022-11-17T18:51:40.025Z,6.76
2022-11-17T18:54:07.306Z,6.76
2022-11-17T18:56:37.562Z,6.74
2022-11-17T18:59:07.088Z,6.77
2022-11-17T19:01:34.339Z,6.76
2022-11-17T19:04:01.793Z,6.76
2022-11-17T19:06:29.898Z,6.74
2022-11-17T19:09:01.142Z,6.78
2022-11-17T19:11:30.160Z,6.79
2022-11-17T19:14:00.710Z,6.80
2022-11-17T19:16:29.028Z,6.77
2022-11-17T19:18:57.719Z,6.83
2022-11-17T19:21:33.752Z,6.84
2022-11-17T19:24:03.811Z,6.83
2022-11-17T19:26:34.698Z,6.81
2022-11-17T19:29:07.084Z,6.86
2022-11-17T19:31:37.790Z,6.87
2022-11-17T19:34:05.509Z,6.86
2022-11-17T19:36:34.304Z,6.86
2022-11-17T19:39:03.016Z,6.85
2022-11-17T19:41:35.424Z,6.83
2022-11-17T19:44:06.023Z,6.84
2022-11-17T19:46:34.369Z,6.83
2022-11-17T19:49:01.918Z,6.82
2022-11-17T19:51:35.914Z,6.83
2022-11-17T19:54:06.877Z,6.87
2022-11-17T19:56:34.775Z,6.87
2022-11-17T19:59:02.395Z,6.88
2022-11-17T20:01:31.598Z,6.87
2022-11-17T20:04:01.220Z,6.94
2022-11-17T20:06:34.610Z,6.94
2022-11-17T20:09:05.997Z,6.92
2022-11-17T20:11:33.275Z,6.93
2022-11-17T20:14:00.978Z,6.96
2022-11-17T20:16:29.615Z,6.97
2022-11-17T20:19:00.004Z,6.99
2022-11-17T20:21:29.446Z,7.02
2022-11-17T20:23:58.183Z,7.02
2022-11-17T20:26:29.669Z,7.02
2022-11-17T20:28:58.813Z,6.98
2022-11-17T20:31:30.494Z,6.99
2022-11-17T20:34:00.908Z,7.01
2022-11-17T20:36:31.484Z,7.03
2022-11-17T20:39:02.371Z,7.02
2022-11-17T20:41:33.087Z,7.05
2022-11-17T20:44:01.191Z,7.08
2022-11-17T20:46:28.933Z,7.10
2022-11-17T20:48:56.388Z,7.15
2022-11-17T20:51:25.418Z,7.21
2022-11-17T20:53:52.697Z,7.22
2022-11-17T20:56:20.629Z,7.22
2022-11-17T20:58:48.194Z,7.19
2022-11-17T21:01:21.932Z,7.19
2022-11-17T21:03:49.419Z,7.20
2022-11-17T21:06:18.111Z,7.25
2022-11-17T21:08:46.546Z,7.30
2022-11-17T21:11:17.948Z,7.35
2022-11-17T21:13:45.181Z,7.39
2022-11-17T21:16:14.959Z,7.42
2022-11-17T21:18:48.240Z,7.34
2022-11-17T21:21:16.456Z,7.32
2022-11-17T21:23:44.450Z,7.30
2022-11-17T21:26:16.912Z,7.28
2022-11-17T21:28:44.491Z,7.18
2022-11-17T21:31:20.770Z,7.13
2022-11-17T21:33:55.020Z,7.15
2022-11-17T21:36:24.289Z,7.12
2022-11-17T21:38:52.561Z,7.10
2022-11-17T21:41:26.324Z,7.06
2022-11-17T21:43:57.598Z,7.06
2022-11-17T21:46:28.085Z,7.11
2022-11-17T21:48:58.073Z,7.06
2022-11-17T21:51:32.282Z,7.05
2022-11-17T21:54:02.897Z,7.04
2022-11-17T21:56:30.562Z,7.02
2022-11-17T21:59:12.729Z,7.00
2022-11-17T22:01:40.661Z,7.02
2022-11-17T22:04:08.352Z,7.02
2022-11-17T22:06:35.557Z,7.02
2022-11-17T22:09:03.119Z,7.01
2022-11-17T22:11:31.764Z,7.05
2022-11-17T22:13:58.925Z,7.03
2022-11-17T22:16:26.247Z,7.03
2022-11-17T22:18:53.480Z,7.03
2022-11-17T22:21:20.735Z,7.03
2022-11-17T22:23:47.923Z,7.05
2022-11-17T22:26:15.133Z,7.04
2022-11-17T22:28:42.459Z,7.03
2022-11-17T22:31:10.475Z,7.06
2022-11-17T22:33:37.667Z,7.07
2022-11-17T22:36:05.219Z,7.07
2022-11-17T22:38:32.976Z,7.07
2022-11-17T22:41:03.212Z,7.05
2022-11-17T22:43:31.009Z,7.02
2022-11-17T22:46:03.316Z,7.02
2022-11-17T22:48:31.389Z,6.99
2022-11-17T22:51:00.116Z,7.03
2022-11-17T22:53:28.289Z,7.03
2022-11-17T22:55:55.594Z,7.00
2022-11-17T22:58:22.907Z,6.96
2022-11-17T23:00:50.188Z,6.93
2022-11-17T23:03:17.384Z,6.92
2022-11-17T23:05:44.586Z,6.92
2022-11-17T23:08:11.752Z,6.85
2022-11-17T23:10:38.899Z,6.86
2022-11-17T23:13:06.158Z,6.84
2022-11-17T23:15:33.495Z,6.83
2022-11-17T23:18:00.692Z,6.80
2022-11-17T23:20:27.927Z,6.81
2022-11-17T23:22:55.319Z,6.79
2022-11-17T23:25:22.470Z,6.80
2022-11-17T23:27:49.578Z,6.77
2022-11-17T23:30:17.117Z,6.76
2022-11-17T23:32:44.276Z,6.74
2022-11-17T23:35:11.399Z,6.74
2022-11-17T23:37:38.764Z,6.72
2022-11-17T23:40:06.621Z,6.69
2022-11-17T23:42:37.393Z,6.68
2022-11-17T23:45:08.275Z,6.66
2022-11-17T23:47:35.642Z,6.65
2022-11-17T23:50:03.239Z,6.63
2022-11-17T23:52:30.881Z,6.63
2022-11-17T23:54:58.136Z,6.58
2022-11-17T23:57:25.219Z,6.57
2022-11-17T23:59:52.500Z,6.54
